sensor_id;sensor_type;location;lat;lon;timestamp;temperature;humidity
12634;DHT22;6382;48.614;8.880;2023-02-24T00:01:25;6.50;99.90
12634;DHT22;6382;48.614;8.880;2023-02-24T00:03:55;6.50;99.90
12634;DHT22;6382;48.614;8.880;2023-02-24T00:06:26;6.40;99.90
12634;DHT22;6382;48.614;8.880;2023-02-24T00:09:05;6.40;99.90
12634;DHT22;6382;48.614;8.880;2023-02-24T00:11:38;6.30;99.90
12634;DHT22;6382;48.614;8.880;2023-02-24T00:14:06;6.30;99.90
12634;DHT22;6382;48.614;8.880;2023-02-24T00:16:33;6.30;99.90
12634;DHT22;6382;48.614;8.880;2023-02-24T00:19:00;6.30;99.90
12634;DHT22;6382;48.614;8.880;2023-02-24T00:21:27;6.30;99.90
12634;DHT22;6382;48.614;8.880;2023-02-24T00:23:54;6.30;99.90
12634;DHT22;6382;48.614;8.880;2023-02-24T00:26:20;6.40;99.90
12634;DHT22;6382;48.614;8.880;2023-02-24T00:28:47;6.40;99.90
12634;DHT22;6382;48.614;8.880;2023-02-24T00:31:15;6.40;99.90
12634;DHT22;6382;48.614;8.880;2023-02-24T00:33:43;6.50;99.90
12634;DHT22;6382;48.614;8.880;2023-02-24T00:36:20;6.60;99.90
12634;DHT22;6382;48.614;8.880;2023-02-24T00:38:51;6.80;99.90
12634;DHT22;6382;48.614;8.880;2023-02-24T00:41:22;6.80;99.90
12634;DHT22;6382;48.614;8.880;2023-02-24T00:43:50;6.80;99.90
12634;DHT22;6382;48.614;8.880;2023-02-24T00:46:19;6.80;99.90
12634;DHT22;6382;48.614;8.880;2023-02-24T00:48:49;6.90;99.90
12634;DHT22;6382;48.614;8.880;2023-02-24T00:51:21;6.90;99.90
12634;DHT22;6382;48.614;8.880;2023-02-24T00:53:53;6.90;99.90
12634;DHT22;6382;48.614;8.880;2023-02-24T00:56:22;7.00;99.90
12634;DHT22;6382;48.614;8.880;2023-02-24T00:58:49;7.00;99.90
12634;DHT22;6382;48.614;8.880;2023-02-24T01:01:16;7.00;99.90
12634;DHT22;6382;48.614;8.880;2023-02-24T01:03:44;7.00;99.90
12634;DHT22;6382;48.614;8.880;2023-02-24T01:06:12;7.00;99.90
12634;DHT22;6382;48.614;8.880;2023-02-24T01:08:39;7.00;99.90
12634;DHT22;6382;48.614;8.880;2023-02-24T01:11:08;6.90;99.90
12634;DHT22;6382;48.614;8.880;2023-02-24T01:13:53;6.90;99.90
12634;DHT22;6382;48.614;8.880;2023-02-24T01:16:20;6.80;99.90
12634;DHT22;6382;48.614;8.880;2023-02-24T01:18:47;6.80;99.90
12634;DHT22;6382;48.614;8.880;2023-02-24T01:21:17;6.80;99.90
12634;DHT22;6382;48.614;8.880;2023-02-24T01:23:48;6.70;99.90
12634;DHT22;6382;48.614;8.880;2023-02-24T01:26:16;6.70;99.90
12634;DHT22;6382;48.614;8.880;2023-02-24T01:28:43;6.80;99.90
12634;DHT22;6382;48.614;8.880;2023-02-24T01:31:14;6.80;99.90
12634;DHT22;6382;48.614;8.880;2023-02-24T01:33:44;6.80;99.90
12634;DHT22;6382;48.614;8.880;2023-02-24T01:36:12;6.80;99.90
12634;DHT22;6382;48.614;8.880;2023-02-24T01:38:39;6.70;99.90
12634;DHT22;6382;48.614;8.880;2023-02-24T01:41:08;6.80;99.90
12634;DHT22;6382;48.614;8.880;2023-02-24T01:46:21;6.80;99.90
12634;DHT22;6382;48.614;8.880;2023-02-24T01:48:49;6.90;99.90
12634;DHT22;6382;48.614;8.880;2023-02-24T01:51:17;6.90;99.90
12634;DHT22;6382;48.614;8.880;2023-02-24T01:53:44;7.00;99.90
12634;DHT22;6382;48.614;8.880;2023-02-24T01:56:11;6.90;99.90
12634;DHT22;6382;48.614;8.880;2023-02-24T01:58:39;6.90;99.90
12634;DHT22;6382;48.614;8.880;2023-02-24T02:01:06;6.90;99.90
12634;DHT22;6382;48.614;8.880;2023-02-24T02:03:38;6.90;99.90
12634;DHT22;6382;48.614;8.880;2023-02-24T02:06:06;6.80;99.90
12634;DHT22;6382;48.614;8.880;2023-02-24T02:08:38;6.70;99.90
12634;DHT22;6382;48.614;8.880;2023-02-24T02:11:07;6.70;99.90
12634;DHT22;6382;48.614;8.880;2023-02-24T02:13:34;6.80;99.90
12634;DHT22;6382;48.614;8.880;2023-02-24T02:16:04;6.80;99.90
12634;DHT22;6382;48.614;8.880;2023-02-24T02:24:23;6.80;99.90
12634;DHT22;6382;48.614;8.880;2023-02-24T02:47:38;7.10;99.90
12634;DHT22;6382;48.614;8.880;2023-02-24T02:50:17;7.00;99.90
12634;DHT22;6382;48.614;8.880;2023-02-24T02:53:09;7.10;99.90
12634;DHT22;6382;48.614;8.880;2023-02-24T02:58:04;7.10;99.90
12634;DHT22;6382;48.614;8.880;2023-02-24T03:00:40;7.10;99.90
12634;DHT22;6382;48.614;8.880;2023-02-24T03:03:11;7.10;99.90
12634;DHT22;6382;48.614;8.880;2023-02-24T03:05:50;7.10;99.90
12634;DHT22;6382;48.614;8.880;2023-02-24T03:08:22;7.10;99.90
12634;DHT22;6382;48.614;8.880;2023-02-24T03:10:51;7.10;99.90
12634;DHT22;6382;48.614;8.880;2023-02-24T03:13:20;7.20;99.90
12634;DHT22;6382;48.614;8.880;2023-02-24T03:15:49;7.10;99.90
12634;DHT22;6382;48.614;8.880;2023-02-24T03:18:21;7.10;99.90
12634;DHT22;6382;48.614;8.880;2023-02-24T03:21:05;7.10;99.90
12634;DHT22;6382;48.614;8.880;2023-02-24T03:23:34;7.10;99.90
12634;DHT22;6382;48.614;8.880;2023-02-24T03:26:49;7.10;99.90
12634;DHT22;6382;48.614;8.880;2023-02-24T03:34:04;7.00;99.90
12634;DHT22;6382;48.614;8.880;2023-02-24T03:36:33;6.90;99.90
12634;DHT22;6382;48.614;8.880;2023-02-24T03:39:00;8.40;99.90
12634;DHT22;6382;48.614;8.880;2023-02-24T03:41:27;7.00;99.90
12634;DHT22;6382;48.614;8.880;2023-02-24T03:43:56;7.00;99.90
12634;DHT22;6382;48.614;8.880;2023-02-24T03:46:24;7.00;99.90
12634;DHT22;6382;48.614;8.880;2023-02-24T03:48:53;7.00;99.90
12634;DHT22;6382;48.614;8.880;2023-02-24T03:51:22;6.90;99.90
12634;DHT22;6382;48.614;8.880;2023-02-24T03:53:55;6.90;99.90
12634;DHT22;6382;48.614;8.880;2023-02-24T03:56:28;6.90;99.90
12634;DHT22;6382;48.614;8.880;2023-02-24T04:03:59;7.00;99.90
12634;DHT22;6382;48.614;8.880;2023-02-24T04:06:30;6.90;99.90
12634;DHT22;6382;48.614;8.880;2023-02-24T04:09:13;8.40;99.90
12634;DHT22;6382;48.614;8.880;2023-02-24T04:14:09;6.90;99.90
12634;DHT22;6382;48.614;8.880;2023-02-24T04:16:40;7.00;99.90
12634;DHT22;6382;48.614;8.880;2023-02-24T04:19:10;7.00;99.90
12634;DHT22;6382;48.614;8.880;2023-02-24T04:21:40;7.10;99.90
12634;DHT22;6382;48.614;8.880;2023-02-24T04:24:08;7.10;99.90
12634;DHT22;6382;48.614;8.880;2023-02-24T04:26:42;7.10;99.90
12634;DHT22;6382;48.614;8.880;2023-02-24T04:29:10;7.10;99.90
12634;DHT22;6382;48.614;8.880;2023-02-24T04:31:47;7.20;99.90
12634;DHT22;6382;48.614;8.880;2023-02-24T04:34:15;7.10;99.90
12634;DHT22;6382;48.614;8.880;2023-02-24T04:36:46;7.20;99.90
12634;DHT22;6382;48.614;8.880;2023-02-24T04:39:15;7.20;99.90
12634;DHT22;6382;48.614;8.880;2023-02-24T04:41:45;8.40;99.90
12634;DHT22;6382;48.614;8.880;2023-02-24T04:44:18;7.10;99.90
12634;DHT22;6382;48.614;8.880;2023-02-24T04:46:46;7.00;99.90
12634;DHT22;6382;48.614;8.880;2023-02-24T04:49:15;7.00;99.90
12634;DHT22;6382;48.614;8.880;2023-02-24T04:51:43;7.00;99.90
12634;DHT22;6382;48.614;8.880;2023-02-24T04:54:11;7.00;99.90
12634;DHT22;6382;48.614;8.880;2023-02-24T04:56:41;7.00;99.90
12634;DHT22;6382;48.614;8.880;2023-02-24T04:59:07;7.00;99.90
12634;DHT22;6382;48.614;8.880;2023-02-24T05:01:36;7.10;99.90
12634;DHT22;6382;48.614;8.880;2023-02-24T05:04:05;7.00;99.90
12634;DHT22;6382;48.614;8.880;2023-02-24T05:06:32;7.00;99.90
12634;DHT22;6382;48.614;8.880;2023-02-24T05:08:59;7.00;99.90
12634;DHT22;6382;48.614;8.880;2023-02-24T05:11:43;7.10;99.90
12634;DHT22;6382;48.614;8.880;2023-02-24T05:14:10;7.00;99.90
12634;DHT22;6382;48.614;8.880;2023-02-24T05:16:44;6.90;99.90
12634;DHT22;6382;48.614;8.880;2023-02-24T05:19:12;6.90;99.90
12634;DHT22;6382;48.614;8.880;2023-02-24T05:21:57;6.90;99.90
12634;DHT22;6382;48.614;8.880;2023-02-24T05:24:24;6.90;99.90
12634;DHT22;6382;48.614;8.880;2023-02-24T05:26:52;6.90;99.90
12634;DHT22;6382;48.614;8.880;2023-02-24T05:29:32;6.90;99.90
12634;DHT22;6382;48.614;8.880;2023-02-24T05:31:59;6.90;99.90
12634;DHT22;6382;48.614;8.880;2023-02-24T05:34:26;6.90;99.90
12634;DHT22;6382;48.614;8.880;2023-02-24T05:36:53;6.90;99.90
12634;DHT22;6382;48.614;8.880;2023-02-24T05:39:19;6.90;99.90
12634;DHT22;6382;48.614;8.880;2023-02-24T05:41:47;8.20;99.90
12634;DHT22;6382;48.614;8.880;2023-02-24T05:44:15;6.90;99.90
12634;DHT22;6382;48.614;8.880;2023-02-24T05:46:43;6.80;99.90
12634;DHT22;6382;48.614;8.880;2023-02-24T05:49:11;6.80;99.90
12634;DHT22;6382;48.614;8.880;2023-02-24T05:51:39;6.80;99.90
12634;DHT22;6382;48.614;8.880;2023-02-24T05:54:10;6.80;99.90
12634;DHT22;6382;48.614;8.880;2023-02-24T05:56:37;6.80;99.90
12634;DHT22;6382;48.614;8.880;2023-02-24T05:59:05;6.80;99.90
12634;DHT22;6382;48.614;8.880;2023-02-24T06:01:35;6.80;99.90
12634;DHT22;6382;48.614;8.880;2023-02-24T06:04:03;6.80;99.90
12634;DHT22;6382;48.614;8.880;2023-02-24T06:06:34;7.10;99.90
12634;DHT22;6382;48.614;8.880;2023-02-24T06:09:02;6.80;99.90
12634;DHT22;6382;48.614;8.880;2023-02-24T06:11:33;6.80;99.90
12634;DHT22;6382;48.614;8.880;2023-02-24T06:14:00;6.90;99.90
12634;DHT22;6382;48.614;8.880;2023-02-24T06:16:27;6.80;99.90
12634;DHT22;6382;48.614;8.880;2023-02-24T06:18:55;6.80;99.90
12634;DHT22;6382;48.614;8.880;2023-02-24T06:21:24;6.80;99.90
12634;DHT22;6382;48.614;8.880;2023-02-24T06:23:55;7.50;99.90
12634;DHT22;6382;48.614;8.880;2023-02-24T06:26:23;6.90;99.90
12634;DHT22;6382;48.614;8.880;2023-02-24T06:28:53;6.90;99.90
12634;DHT22;6382;48.614;8.880;2023-02-24T06:31:19;6.90;99.90
12634;DHT22;6382;48.614;8.880;2023-02-24T06:33:47;6.90;99.90
12634;DHT22;6382;48.614;8.880;2023-02-24T06:36:14;6.90;99.90
12634;DHT22;6382;48.614;8.880;2023-02-24T06:38:40;6.90;99.90
12634;DHT22;6382;48.614;8.880;2023-02-24T06:41:07;6.90;99.90
12634;DHT22;6382;48.614;8.880;2023-02-24T06:43:37;6.90;99.90
12634;DHT22;6382;48.614;8.880;2023-02-24T06:46:05;6.90;99.90
12634;DHT22;6382;48.614;8.880;2023-02-24T06:48:32;6.90;99.90
12634;DHT22;6382;48.614;8.880;2023-02-24T06:51:03;6.90;99.90
12634;DHT22;6382;48.614;8.880;2023-02-24T06:53:31;6.90;99.90
12634;DHT22;6382;48.614;8.880;2023-02-24T06:56:04;6.90;99.90
12634;DHT22;6382;48.614;8.880;2023-02-24T06:58:32;6.90;99.90
12634;DHT22;6382;48.614;8.880;2023-02-24T07:00:58;6.90;99.90
12634;DHT22;6382;48.614;8.880;2023-02-24T07:03:28;7.00;99.90
12634;DHT22;6382;48.614;8.880;2023-02-24T07:06:12;6.90;99.90
12634;DHT22;6382;48.614;8.880;2023-02-24T07:08:51;7.00;99.90
12634;DHT22;6382;48.614;8.880;2023-02-24T07:11:18;7.00;99.90
12634;DHT22;6382;48.614;8.880;2023-02-24T07:13:46;7.00;99.90
12634;DHT22;6382;48.614;8.880;2023-02-24T07:16:17;6.90;99.90
12634;DHT22;6382;48.614;8.880;2023-02-24T07:18:45;6.90;99.90
12634;DHT22;6382;48.614;8.880;2023-02-24T07:21:15;6.90;99.90
12634;DHT22;6382;48.614;8.880;2023-02-24T07:23:43;7.00;99.90
12634;DHT22;6382;48.614;8.880;2023-02-24T07:26:11;6.90;99.90
12634;DHT22;6382;48.614;8.880;2023-02-24T07:28:39;6.90;99.90
12634;DHT22;6382;48.614;8.880;2023-02-24T07:31:07;9.50;99.90
12634;DHT22;6382;48.614;8.880;2023-02-24T07:33:34;6.90;99.90
12634;DHT22;6382;48.614;8.880;2023-02-24T07:36:05;7.00;99.90
12634;DHT22;6382;48.614;8.880;2023-02-24T07:38:38;6.90;99.90
12634;DHT22;6382;48.614;8.880;2023-02-24T07:41:05;6.90;99.90
12634;DHT22;6382;48.614;8.880;2023-02-24T07:43:33;7.00;99.90
12634;DHT22;6382;48.614;8.880;2023-02-24T07:46:10;6.90;99.90
12634;DHT22;6382;48.614;8.880;2023-02-24T07:48:40;6.90;99.90
12634;DHT22;6382;48.614;8.880;2023-02-24T07:51:10;6.90;99.90
12634;DHT22;6382;48.614;8.880;2023-02-24T07:53:37;7.00;99.90
12634;DHT22;6382;48.614;8.880;2023-02-24T07:56:08;6.90;99.90
12634;DHT22;6382;48.614;8.880;2023-02-24T07:58:42;6.90;99.90
12634;DHT22;6382;48.614;8.880;2023-02-24T08:01:10;6.90;99.90
12634;DHT22;6382;48.614;8.880;2023-02-24T08:03:49;6.90;99.90
12634;DHT22;6382;48.614;8.880;2023-02-24T08:06:17;6.90;99.90
12634;DHT22;6382;48.614;8.880;2023-02-24T08:08:53;7.00;99.90
12634;DHT22;6382;48.614;8.880;2023-02-24T08:11:24;6.90;99.90
12634;DHT22;6382;48.614;8.880;2023-02-24T08:13:51;6.90;99.90
12634;DHT22;6382;48.614;8.880;2023-02-24T08:16:19;6.90;99.90
12634;DHT22;6382;48.614;8.880;2023-02-24T08:18:45;7.00;99.90
12634;DHT22;6382;48.614;8.880;2023-02-24T08:21:17;6.90;99.90
12634;DHT22;6382;48.614;8.880;2023-02-24T08:23:47;7.00;99.90
12634;DHT22;6382;48.614;8.880;2023-02-24T08:26:14;6.90;99.90
12634;DHT22;6382;48.614;8.880;2023-02-24T08:28:41;7.00;99.90
12634;DHT22;6382;48.614;8.880;2023-02-24T08:31:09;7.00;99.90
12634;DHT22;6382;48.614;8.880;2023-02-24T08:33:38;7.10;99.90
12634;DHT22;6382;48.614;8.880;2023-02-24T08:36:04;7.10;99.90
12634;DHT22;6382;48.614;8.880;2023-02-24T08:38:33;8.10;99.90
12634;DHT22;6382;48.614;8.880;2023-02-24T08:41:14;7.20;99.90
12634;DHT22;6382;48.614;8.880;2023-02-24T08:43:44;7.20;99.90
12634;DHT22;6382;48.614;8.880;2023-02-24T08:46:13;7.20;99.90
12634;DHT22;6382;48.614;8.880;2023-02-24T08:48:48;7.30;99.90
12634;DHT22;6382;48.614;8.880;2023-02-24T08:51:16;7.40;99.90
12634;DHT22;6382;48.614;8.880;2023-02-24T08:53:52;7.60;99.90
12634;DHT22;6382;48.614;8.880;2023-02-24T08:56:20;7.70;99.90
12634;DHT22;6382;48.614;8.880;2023-02-24T08:58:51;7.70;99.90
12634;DHT22;6382;48.614;8.880;2023-02-24T09:01:26;7.80;99.90
12634;DHT22;6382;48.614;8.880;2023-02-24T09:04:04;7.80;99.90
12634;DHT22;6382;48.614;8.880;2023-02-24T09:06:40;7.80;99.90
12634;DHT22;6382;48.614;8.880;2023-02-24T09:09:10;7.90;99.90
12634;DHT22;6382;48.614;8.880;2023-02-24T09:12:01;10.90;99.90
12634;DHT22;6382;48.614;8.880;2023-02-24T09:14:28;7.90;99.90
12634;DHT22;6382;48.614;8.880;2023-02-24T09:16:56;8.00;99.90
12634;DHT22;6382;48.614;8.880;2023-02-24T09:19:35;8.00;99.90
12634;DHT22;6382;48.614;8.880;2023-02-24T09:22:18;8.00;99.90
12634;DHT22;6382;48.614;8.880;2023-02-24T09:25:04;8.00;99.90
12634;DHT22;6382;48.614;8.880;2023-02-24T09:27:47;8.00;99.90
12634;DHT22;6382;48.614;8.880;2023-02-24T09:30:18;8.10;99.90
12634;DHT22;6382;48.614;8.880;2023-02-24T09:33:12;8.20;99.90
12634;DHT22;6382;48.614;8.880;2023-02-24T09:35:47;8.20;99.90
12634;DHT22;6382;48.614;8.880;2023-02-24T09:38:14;8.10;99.90
12634;DHT22;6382;48.614;8.880;2023-02-24T09:40:43;8.10;99.90
12634;DHT22;6382;48.614;8.880;2023-02-24T09:43:20;8.20;99.90
12634;DHT22;6382;48.614;8.880;2023-02-24T09:45:51;8.30;99.90
12634;DHT22;6382;48.614;8.880;2023-02-24T09:48:21;10.00;99.90
12634;DHT22;6382;48.614;8.880;2023-02-24T09:50:50;8.50;99.90
12634;DHT22;6382;48.614;8.880;2023-02-24T09:53:31;8.70;99.90
12634;DHT22;6382;48.614;8.880;2023-02-24T09:56:09;8.80;99.90
12634;DHT22;6382;48.614;8.880;2023-02-24T09:58:48;8.80;99.90
12634;DHT22;6382;48.614;8.880;2023-02-24T10:07:30;9.00;99.90
12634;DHT22;6382;48.614;8.880;2023-02-24T10:09:41;9.10;99.90
12634;DHT22;6382;48.614;8.880;2023-02-24T10:12:17;9.10;99.90
12634;DHT22;6382;48.614;8.880;2023-02-24T10:14:46;9.20;99.90
12634;DHT22;6382;48.614;8.880;2023-02-24T10:17:21;9.10;99.90
12634;DHT22;6382;48.614;8.880;2023-02-24T10:19:55;9.30;99.90
12634;DHT22;6382;48.614;8.880;2023-02-24T10:33:16;9.40;99.90
12634;DHT22;6382;48.614;8.880;2023-02-24T10:35:43;9.40;99.90
12634;DHT22;6382;48.614;8.880;2023-02-24T10:38:10;9.50;99.90
12634;DHT22;6382;48.614;8.880;2023-02-24T10:40:45;9.50;99.90
12634;DHT22;6382;48.614;8.880;2023-02-24T10:43:16;9.50;99.90
12634;DHT22;6382;48.614;8.880;2023-02-24T10:45:59;9.60;99.90
12634;DHT22;6382;48.614;8.880;2023-02-24T10:48:33;9.60;99.90
12634;DHT22;6382;48.614;8.880;2023-02-24T10:51:13;9.60;99.90
12634;DHT22;6382;48.614;8.880;2023-02-24T10:53:49;9.70;99.90
12634;DHT22;6382;48.614;8.880;2023-02-24T10:56:18;9.70;99.90
12634;DHT22;6382;48.614;8.880;2023-02-24T10:59:03;9.60;99.90
12634;DHT22;6382;48.614;8.880;2023-02-24T11:02:07;9.40;99.90
12634;DHT22;6382;48.614;8.880;2023-02-24T11:04:52;9.30;99.90
12634;DHT22;6382;48.614;8.880;2023-02-24T11:07:26;9.20;99.90
12634;DHT22;6382;48.614;8.880;2023-02-24T11:10:14;9.20;99.90
12634;DHT22;6382;48.614;8.880;2023-02-24T11:12:54;9.00;99.90
12634;DHT22;6382;48.614;8.880;2023-02-24T11:15:43;9.00;99.90
12634;DHT22;6382;48.614;8.880;2023-02-24T11:18:30;8.90;99.90
12634;DHT22;6382;48.614;8.880;2023-02-24T11:20:58;8.90;99.90
12634;DHT22;6382;48.614;8.880;2023-02-24T11:23:27;8.80;99.90
12634;DHT22;6382;48.614;8.880;2023-02-24T11:25:58;8.80;99.90
12634;DHT22;6382;48.614;8.880;2023-02-24T11:31:04;8.70;99.90
12634;DHT22;6382;48.614;8.880;2023-02-24T11:36:27;8.70;99.90
12634;DHT22;6382;48.614;8.880;2023-02-24T11:39:00;8.70;99.90
12634;DHT22;6382;48.614;8.880;2023-02-24T11:41:43;8.70;99.90
12634;DHT22;6382;48.614;8.880;2023-02-24T11:44:14;8.90;99.90
12634;DHT22;6382;48.614;8.880;2023-02-24T11:46:48;8.80;99.90
12634;DHT22;6382;48.614;8.880;2023-02-24T11:51:48;9.00;99.90
12634;DHT22;6382;48.614;8.880;2023-02-24T11:54:15;9.30;99.90
12634;DHT22;6382;48.614;8.880;2023-02-24T11:56:54;9.50;99.90
12634;DHT22;6382;48.614;8.880;2023-02-24T12:02:02;9.70;99.90
12634;DHT22;6382;48.614;8.880;2023-02-24T12:04:33;9.70;99.90
12634;DHT22;6382;48.614;8.880;2023-02-24T12:07:06;9.80;99.90
12634;DHT22;6382;48.614;8.880;2023-02-24T12:09:47;9.80;99.90
12634;DHT22;6382;48.614;8.880;2023-02-24T12:12:16;9.90;99.90
12634;DHT22;6382;48.614;8.880;2023-02-24T12:14:49;11.50;99.90
12634;DHT22;6382;48.614;8.880;2023-02-24T12:19:52;10.10;99.90
12634;DHT22;6382;48.614;8.880;2023-02-24T12:22:23;10.20;99.90
12634;DHT22;6382;48.614;8.880;2023-02-24T12:24:51;10.30;99.90
12634;DHT22;6382;48.614;8.880;2023-02-24T12:37:58;10.60;99.90
12634;DHT22;6382;48.614;8.880;2023-02-24T12:55:49;10.30;99.90
12634;DHT22;6382;48.614;8.880;2023-02-24T12:58:21;12.10;99.90
12634;DHT22;6382;48.614;8.880;2023-02-24T13:06:05;10.40;99.90
12634;DHT22;6382;48.614;8.880;2023-02-24T13:08:50;10.50;99.90
12634;DHT22;6382;48.614;8.880;2023-02-24T13:11:26;10.40;99.90
12634;DHT22;6382;48.614;8.880;2023-02-24T13:13:59;10.50;99.90
12634;DHT22;6382;48.614;8.880;2023-02-24T13:16:28;10.50;99.90
12634;DHT22;6382;48.614;8.880;2023-02-24T13:19:56;10.60;99.90
12634;DHT22;6382;48.614;8.880;2023-02-24T13:24:36;10.70;99.90
12634;DHT22;6382;48.614;8.880;2023-02-24T13:29:52;10.70;99.90
12634;DHT22;6382;48.614;8.880;2023-02-24T13:34:49;11.60;99.90
12634;DHT22;6382;48.614;8.880;2023-02-24T13:37:26;10.70;99.90
12634;DHT22;6382;48.614;8.880;2023-02-24T13:39:53;10.70;99.90
12634;DHT22;6382;48.614;8.880;2023-02-24T13:42:24;10.80;99.90
12634;DHT22;6382;48.614;8.880;2023-02-24T13:44:52;10.80;99.90
12634;DHT22;6382;48.614;8.880;2023-02-24T13:47:24;10.90;99.90
12634;DHT22;6382;48.614;8.880;2023-02-24T13:50:38;10.90;99.90
12634;DHT22;6382;48.614;8.880;2023-02-24T13:55:39;10.80;99.90
12634;DHT22;6382;48.614;8.880;2023-02-24T14:01:10;10.70;99.90
12634;DHT22;6382;48.614;8.880;2023-02-24T14:03:38;10.50;99.90
12634;DHT22;6382;48.614;8.880;2023-02-24T14:06:12;10.40;99.90
12634;DHT22;6382;48.614;8.880;2023-02-24T14:08:41;10.40;99.90
12634;DHT22;6382;48.614;8.880;2023-02-24T14:11:10;12.30;99.90
12634;DHT22;6382;48.614;8.880;2023-02-24T14:13:38;10.30;99.90
12634;DHT22;6382;48.614;8.880;2023-02-24T14:16:05;10.30;99.90
12634;DHT22;6382;48.614;8.880;2023-02-24T14:18:33;10.20;99.90
12634;DHT22;6382;48.614;8.880;2023-02-24T14:21:00;10.20;99.90
12634;DHT22;6382;48.614;8.880;2023-02-24T14:23:28;10.20;99.90
12634;DHT22;6382;48.614;8.880;2023-02-24T14:25:55;10.10;99.90
12634;DHT22;6382;48.614;8.880;2023-02-24T14:28:25;10.10;99.90
12634;DHT22;6382;48.614;8.880;2023-02-24T14:30:53;10.00;99.90
12634;DHT22;6382;48.614;8.880;2023-02-24T14:33:27;10.00;99.90
12634;DHT22;6382;48.614;8.880;2023-02-24T14:35:54;10.00;99.90
12634;DHT22;6382;48.614;8.880;2023-02-24T14:40:54;9.90;99.90
12634;DHT22;6382;48.614;8.880;2023-02-24T14:43:20;9.90;99.90
12634;DHT22;6382;48.614;8.880;2023-02-24T14:45:50;9.90;99.90
12634;DHT22;6382;48.614;8.880;2023-02-24T14:48:25;9.90;99.90
12634;DHT22;6382;48.614;8.880;2023-02-24T14:50:56;9.90;99.90
12634;DHT22;6382;48.614;8.880;2023-02-24T14:53:26;9.90;99.90
12634;DHT22;6382;48.614;8.880;2023-02-24T14:55:55;10.00;99.90
12634;DHT22;6382;48.614;8.880;2023-02-24T15:00:50;10.00;99.90
12634;DHT22;6382;48.614;8.880;2023-02-24T15:03:22;10.00;99.90
12634;DHT22;6382;48.614;8.880;2023-02-24T15:05:53;9.90;99.90
12634;DHT22;6382;48.614;8.880;2023-02-24T15:10:50;9.80;99.90
12634;DHT22;6382;48.614;8.880;2023-02-24T15:13:20;9.80;99.90
12634;DHT22;6382;48.614;8.880;2023-02-24T15:15:49;9.70;99.90
12634;DHT22;6382;48.614;8.880;2023-02-24T15:18:34;9.60;99.90
12634;DHT22;6382;48.614;8.880;2023-02-24T15:21:02;9.50;99.90
12634;DHT22;6382;48.614;8.880;2023-02-24T15:23:31;9.60;99.90
12634;DHT22;6382;48.614;8.880;2023-02-24T15:25:58;9.50;99.90
12634;DHT22;6382;48.614;8.880;2023-02-24T15:28:26;9.50;99.90
12634;DHT22;6382;48.614;8.880;2023-02-24T15:33:23;11.00;99.90
12634;DHT22;6382;48.614;8.880;2023-02-24T15:35:51;9.30;99.90
12634;DHT22;6382;48.614;8.880;2023-02-24T15:38:23;9.40;99.90
12634;DHT22;6382;48.614;8.880;2023-02-24T15:40:51;9.30;99.90
12634;DHT22;6382;48.614;8.880;2023-02-24T15:43:29;9.30;99.90
12634;DHT22;6382;48.614;8.880;2023-02-24T15:45:56;9.30;99.90
12634;DHT22;6382;48.614;8.880;2023-02-24T15:48:23;10.80;99.90
12634;DHT22;6382;48.614;8.880;2023-02-24T15:50:55;9.20;99.90
12634;DHT22;6382;48.614;8.880;2023-02-24T15:53:26;9.20;99.90
12634;DHT22;6382;48.614;8.880;2023-02-24T15:55:53;10.60;99.90
12634;DHT22;6382;48.614;8.880;2023-02-24T15:58:21;9.10;99.90
12634;DHT22;6382;48.614;8.880;2023-02-24T16:00:47;9.10;99.90
12634;DHT22;6382;48.614;8.880;2023-02-24T16:03:18;9.10;99.90
12634;DHT22;6382;48.614;8.880;2023-02-24T16:05:44;9.00;99.90
12634;DHT22;6382;48.614;8.880;2023-02-24T16:08:16;9.10;99.90
12634;DHT22;6382;48.614;8.880;2023-02-24T16:10:43;9.00;99.90
12634;DHT22;6382;48.614;8.880;2023-02-24T16:13:17;9.00;99.90
12634;DHT22;6382;48.614;8.880;2023-02-24T16:15:44;8.90;99.90
12634;DHT22;6382;48.614;8.880;2023-02-24T16:18:13;8.90;99.90
12634;DHT22;6382;48.614;8.880;2023-02-24T16:20:47;10.00;99.90
12634;DHT22;6382;48.614;8.880;2023-02-24T16:23:20;8.80;99.90
12634;DHT22;6382;48.614;8.880;2023-02-24T16:25:48;8.80;99.90
12634;DHT22;6382;48.614;8.880;2023-02-24T16:28:16;8.80;99.90
12634;DHT22;6382;48.614;8.880;2023-02-24T16:30:43;8.80;99.90
12634;DHT22;6382;48.614;8.880;2023-02-24T16:33:11;8.80;99.90
12634;DHT22;6382;48.614;8.880;2023-02-24T16:35:38;8.70;99.90
12634;DHT22;6382;48.614;8.880;2023-02-24T16:38:14;8.70;99.90
12634;DHT22;6382;48.614;8.880;2023-02-24T16:40:42;8.50;99.90
12634;DHT22;6382;48.614;8.880;2023-02-24T16:43:09;10.40;99.90
12634;DHT22;6382;48.614;8.880;2023-02-24T16:45:36;8.50;99.90
12634;DHT22;6382;48.614;8.880;2023-02-24T16:48:04;8.50;99.90
12634;DHT22;6382;48.614;8.880;2023-02-24T16:50:32;8.40;99.90
12634;DHT22;6382;48.614;8.880;2023-02-24T16:53:00;8.50;99.90
12634;DHT22;6382;48.614;8.880;2023-02-24T16:55:27;8.40;99.90
12634;DHT22;6382;48.614;8.880;2023-02-24T16:57:54;8.30;99.90
12634;DHT22;6382;48.614;8.880;2023-02-24T17:00:20;8.30;99.90
12634;DHT22;6382;48.614;8.880;2023-02-24T17:02:50;8.20;99.90
12634;DHT22;6382;48.614;8.880;2023-02-24T17:05:21;8.20;99.90
12634;DHT22;6382;48.614;8.880;2023-02-24T17:07:49;8.10;99.90
12634;DHT22;6382;48.614;8.880;2023-02-24T17:10:16;8.20;99.90
12634;DHT22;6382;48.614;8.880;2023-02-24T17:12:43;8.10;99.90
12634;DHT22;6382;48.614;8.880;2023-02-24T17:15:11;10.70;99.90
12634;DHT22;6382;48.614;8.880;2023-02-24T17:17:38;8.00;99.90
12634;DHT22;6382;48.614;8.880;2023-02-24T17:20:06;7.90;99.90
12634;DHT22;6382;48.614;8.880;2023-02-24T17:22:33;7.90;99.90
12634;DHT22;6382;48.614;8.880;2023-02-24T17:25:02;7.90;99.90
12634;DHT22;6382;48.614;8.880;2023-02-24T17:27:29;7.80;99.90
12634;DHT22;6382;48.614;8.880;2023-02-24T17:29:55;8.90;99.90
12634;DHT22;6382;48.614;8.880;2023-02-24T17:32:22;7.80;99.90
12634;DHT22;6382;48.614;8.880;2023-02-24T17:34:49;7.80;99.90
12634;DHT22;6382;48.614;8.880;2023-02-24T17:37:16;7.70;99.90
12634;DHT22;6382;48.614;8.880;2023-02-24T17:39:43;7.70;99.90
12634;DHT22;6382;48.614;8.880;2023-02-24T17:42:10;9.40;99.90
12634;DHT22;6382;48.614;8.880;2023-02-24T17:44:36;7.70;99.90
12634;DHT22;6382;48.614;8.880;2023-02-24T17:47:03;7.70;99.90
12634;DHT22;6382;48.614;8.880;2023-02-24T17:49:31;7.60;99.90
12634;DHT22;6382;48.614;8.880;2023-02-24T17:51:58;7.60;99.90
12634;DHT22;6382;48.614;8.880;2023-02-24T17:54:24;7.60;99.90
12634;DHT22;6382;48.614;8.880;2023-02-24T17:56:51;7.50;99.90
12634;DHT22;6382;48.614;8.880;2023-02-24T17:59:18;7.50;99.90
12634;DHT22;6382;48.614;8.880;2023-02-24T18:01:47;9.70;99.90
12634;DHT22;6382;48.614;8.880;2023-02-24T18:04:13;7.40;99.90
12634;DHT22;6382;48.614;8.880;2023-02-24T18:06:41;7.40;99.90
12634;DHT22;6382;48.614;8.880;2023-02-24T18:09:08;7.30;99.90
12634;DHT22;6382;48.614;8.880;2023-02-24T18:11:34;7.30;99.90
12634;DHT22;6382;48.614;8.880;2023-02-24T18:14:01;7.30;99.90
12634;DHT22;6382;48.614;8.880;2023-02-24T18:16:28;7.30;99.90
12634;DHT22;6382;48.614;8.880;2023-02-24T18:18:55;7.20;99.90
12634;DHT22;6382;48.614;8.880;2023-02-24T18:21:22;7.20;99.90
12634;DHT22;6382;48.614;8.880;2023-02-24T18:23:49;7.10;99.90
12634;DHT22;6382;48.614;8.880;2023-02-24T18:26:18;7.20;99.90
12634;DHT22;6382;48.614;8.880;2023-02-24T18:28:49;7.10;99.90
12634;DHT22;6382;48.614;8.880;2023-02-24T18:31:20;7.00;99.90